Time;durP1;ratioP1;P1;durP2;ratioP2;P2;SDS_P1;SDS_P2;PMS_P1;PMS_P2;Temp;Humidity;BMP_temperature;BMP_pressure;BME280_temperature;BME280_humidity;BME280_pressure;Samples;Min_cycle;Max_cycle;Signal;HPM_P1;HPM_P2
2022/09/15 00:00:53;;;;;;;8.52;4.95;;;13.70;99.90;;;;;;5133762;27;20409;-71
2022/09/15 00:03:20;;;;;;;7.78;4.55;;;13.70;99.90;;;;;;5115147;27;20046;-72
2022/09/15 00:05:47;;;;;;;8.65;3.83;;;13.80;99.90;;;;;;5115425;27;20035;-71
2022/09/15 00:08:13;;;;;;;6.32;3.63;;;13.80;99.90;;;;;;5115414;27;20031;-71
2022/09/15 00:10:57;;;;;;;7.50;3.38;;;13.80;99.90;;;;;;5133433;27;20552;-71
2022/09/15 00:13:24;;;;;;;7.22;3.10;;;13.80;99.90;;;;;;5115043;27;20050;-72
2022/09/15 00:15:50;;;;;;;7.97;3.10;;;13.80;99.90;;;;;;5098018;27;20375;-71
2022/09/15 00:18:16;;;;;;;4.10;2.30;;;13.80;99.90;;;;;;5133314;27;20064;-71
2022/09/15 00:20:44;;;;;;;7.53;2.25;;;13.80;99.90;;;;;;5133305;27;20048;-71
2022/09/15 00:23:12;;;;;;;8.40;1.92;;;13.90;99.90;;;;;;5112687;27;20503;-71
2022/09/15 00:25:46;;;;;;;5.68;1.58;;;13.90;99.90;;;;;;5133140;27;20074;-71
2022/09/15 00:28:14;;;;;;;5.68;1.40;;;13.90;99.90;;;;;;5149074;27;20039;-71
2022/09/15 00:30:44;;;;;;;5.38;1.40;;;14.00;99.90;;;;;;5114499;27;20077;-71
2022/09/15 00:33:12;;;;;;;6.68;1.77;;;14.00;99.90;;;;;;5133058;27;20342;-71
2022/09/15 00:35:39;;;;;;;7.05;1.55;;;14.10;99.90;;;;;;5133136;27;20039;-72
2022/09/15 00:38:06;;;;;;;5.40;1.25;;;14.10;99.90;;;;;;5114785;27;20038;-71
2022/09/15 00:40:32;;;;;;;4.40;1.40;;;14.20;99.90;;;;;;5114607;27;20117;-72
2022/09/15 00:42:58;;;;;;;5.90;1.70;;;14.20;99.90;;;;;;5114516;27;20074;-72
2022/09/15 00:45:25;;;;;;;3.40;1.42;;;14.20;99.90;;;;;;5133219;27;20054;-72
2022/09/15 00:47:51;;;;;;;7.90;1.92;;;14.20;99.90;;;;;;5133065;27;20113;-72
2022/09/15 00:50:19;;;;;;;9.55;1.45;;;14.20;99.90;;;;;;5132834;27;20057;-71
2022/09/15 00:52:56;;;;;;;5.90;1.40;;;14.20;99.90;;;;;;5132885;27;20122;-72
2022/09/15 00:55:30;;;;;;;8.07;1.95;;;14.20;99.90;;;;;;5131658;28;20058;-72
2022/09/15 00:58:13;;;;;;;6.30;1.80;;;14.20;99.90;;;;;;5148809;27;20078;-71
2022/09/15 01:00:49;;;;;;;5.53;1.92;;;14.10;99.90;;;;;;5114388;28;20118;-72
2022/09/15 01:03:16;;;;;;;6.97;1.50;;;14.20;99.90;;;;;;5114488;28;20465;-72
2022/09/15 01:05:50;;;;;;;4.50;1.70;;;14.10;99.90;;;;;;5114487;28;20039;-72
2022/09/15 01:08:35;;;;;;;4.60;1.38;;;14.10;99.90;;;;;;5132667;28;20075;-72
2022/09/15 01:11:01;;;;;;;4.75;1.83;;;14.10;99.90;;;;;;5132844;28;20043;-71
2022/09/15 01:13:28;;;;;;;6.00;1.55;;;14.00;99.90;;;;;;5132721;28;20130;-72
2022/09/15 01:16:38;;;;;;;7.15;1.88;;;14.00;99.90;;;;;;5114322;28;20050;-72
2022/09/15 01:19:27;;;;;;;5.85;1.67;;;14.00;99.90;;;;;;5097269;28;20035;-72
2022/09/15 01:22:27;;;;;;;5.75;1.67;;;13.90;99.90;;;;;;5092290;28;20100;-72
2022/09/15 01:24:54;;;;;;;4.75;1.60;;;13.90;99.90;;;;;;5112114;28;20415;-72
2022/09/15 01:27:19;;;;;;;6.35;2.13;;;13.90;99.90;;;;;;5097140;28;20050;-72
2022/09/15 01:30:10;;;;;;;6.40;2.40;;;13.90;99.90;;;;;;5114102;28;20117;-72
2022/09/15 01:33:05;;;;;;;8.07;2.20;;;13.90;99.90;;;;;;5132555;28;20122;-72
2022/09/15 01:35:34;;;;;;;10.23;2.17;;;13.90;99.90;;;;;;5114097;28;20130;-72
2022/09/15 01:38:26;;;;;;;9.83;1.83;;;13.80;99.90;;;;;;5114157;28;20069;-71
2022/09/15 01:41:26;;;;;;;7.70;1.90;;;13.80;99.90;;;;;;5077901;28;20071;-72
2022/09/15 01:44:01;;;;;;;6.95;1.75;;;13.80;99.90;;;;;;5125181;27;20043;-72
2022/09/15 01:46:31;;;;;;;5.22;1.98;;;13.80;99.90;;;;;;5118141;27;20042;-71
2022/09/15 01:49:00;;;;;;;6.63;2.08;;;13.80;99.90;;;;;;5136362;27;20145;-71
2022/09/15 01:51:29;;;;;;;5.50;1.65;;;13.70;99.90;;;;;;5134914;27;20521;-72
2022/09/15 01:53:55;;;;;;;5.88;1.63;;;13.70;99.90;;;;;;5132381;27;20043;-72
2022/09/15 01:56:21;;;;;;;7.10;1.80;;;13.80;99.90;;;;;;5135896;27;20647;-72
2022/09/15 01:58:50;;;;;;;11.00;2.22;;;13.80;99.90;;;;;;5135084;27;20047;-72
2022/09/15 02:01:25;;;;;;;5.68;1.58;;;13.80;99.90;;;;;;5134776;27;20047;-72
2022/09/15 02:03:57;;;;;;;7.70;1.48;;;13.80;99.90;;;;;;5134744;27;20036;-72
2022/09/15 02:06:38;;;;;;;6.93;1.77;;;13.90;99.90;;;;;;5135003;27;20039;-71
2022/09/15 02:09:16;;;;;;;7.55;1.13;;;13.90;99.90;;;;;;5134638;27;20072;-72
2022/09/15 02:11:57;;;;;;;4.30;1.10;;;13.90;99.90;;;;;;5134602;27;20081;-72
2022/09/15 02:14:49;;;;;;;5.38;1.23;;;14.00;99.90;;;;;;5117243;27;20535;-71
2022/09/15 02:17:18;;;;;;;4.43;1.20;;;14.00;99.90;;;;;;5136111;27;20035;-72
2022/09/15 02:19:52;;;;;;;7.57;1.52;;;14.10;99.90;;;;;;5134468;27;20084;-71
2022/09/15 02:22:28;;;;;;;5.90;1.10;;;14.10;99.90;;;;;;5134666;27;20031;-71
2022/09/15 02:25:21;;;;;;;6.72;1.45;;;14.10;99.90;;;;;;5133761;27;20069;-71
2022/09/15 02:27:51;;;;;;;5.43;1.00;;;14.10;99.90;;;;;;5117073;27;20100;-72
2022/09/15 02:30:19;;;;;;;6.28;1.25;;;14.10;99.90;;;;;;5134200;27;20070;-72
2022/09/15 02:32:55;;;;;;;5.65;1.20;;;14.10;99.90;;;;;;5135581;27;20043;-72
2022/09/15 02:35:23;;;;;;;3.35;0.88;;;14.10;99.90;;;;;;5135282;27;20552;-71
2022/09/15 02:37:50;;;;;;;4.60;0.95;;;14.10;99.90;;;;;;5134049;27;20066;-71
2022/09/15 02:40:16;;;;;;;7.30;1.30;;;14.10;99.90;;;;;;5117089;27;20084;-72
2022/09/15 02:42:55;;;;;;;7.65;1.10;;;14.20;99.90;;;;;;5134064;27;20122;-73
2022/09/15 02:45:23;;;;;;;3.75;1.00;;;14.20;99.90;;;;;;5117097;27;20432;-72
2022/09/15 02:47:49;;;;;;;6.25;0.88;;;14.20;99.90;;;;;;5134260;27;20393;-72
2022/09/15 02:50:16;;;;;;;7.50;1.00;;;14.20;99.90;;;;;;5133916;27;20359;-72
2022/09/15 02:52:42;;;;;;;5.10;1.00;;;14.20;99.90;;;;;;5116762;27;20058;-71
2022/09/15 02:55:09;;;;;;;5.97;1.38;;;14.20;99.90;;;;;;5131590;27;20047;-71
2022/09/15 02:57:35;;;;;;;5.78;1.63;;;14.10;99.90;;;;;;5116920;27;20375;-72
2022/09/15 03:00:12;;;;;;;4.68;1.02;;;14.10;99.90;;;;;;5116411;27;20134;-71
2022/09/15 03:02:48;;;;;;;5.80;1.17;;;14.10;99.90;;;;;;5133496;27;20035;-72
2022/09/15 03:05:16;;;;;;;6.32;1.20;;;14.10;99.90;;;;;;5116373;27;20126;-72
2022/09/15 03:07:42;;;;;;;7.70;1.00;;;14.10;99.90;;;;;;5116315;27;20043;-72
2022/09/15 03:10:10;;;;;;;2.90;0.90;;;14.00;99.90;;;;;;5133394;27;20078;-72
2022/09/15 03:12:41;;;;;;;6.40;1.02;;;14.00;99.90;;;;;;5133543;27;20074;-72
2022/09/15 03:15:10;;;;;;;5.88;1.10;;;14.00;99.90;;;;;;5133380;27;20047;-72
2022/09/15 03:17:37;;;;;;;7.18;1.00;;;14.00;99.90;;;;;;5134528;27;20118;-72
2022/09/15 03:20:04;;;;;;;5.22;0.95;;;13.90;99.90;;;;;;5133442;27;20045;-72
2022/09/15 03:22:31;;;;;;;5.60;1.17;;;13.90;99.90;;;;;;5133428;27;20083;-72
2022/09/15 03:24:57;;;;;;;7.93;1.60;;;13.90;99.90;;;;;;5130763;27;20050;-72
2022/09/15 03:27:23;;;;;;;3.63;0.90;;;13.90;99.90;;;;;;5133264;27;20039;-72
2022/09/15 03:29:49;;;;;;;5.50;1.45;;;13.90;99.90;;;;;;5133005;27;20127;-72
2022/09/15 03:32:15;;;;;;;4.25;1.02;;;13.90;99.90;;;;;;5133359;27;20079;-72
2022/09/15 03:34:41;;;;;;;9.98;2.13;;;13.90;99.90;;;;;;5134372;27;20641;-72
2022/09/15 03:37:06;;;;;;;5.63;1.02;;;13.90;99.90;;;;;;5133125;27;20047;-72
2022/09/15 03:39:33;;;;;;;5.05;1.63;;;13.90;99.90;;;;;;5134110;27;20035;-72
2022/09/15 03:41:59;;;;;;;6.07;1.00;;;13.90;99.90;;;;;;5132801;27;20035;-72
2022/09/15 03:44:25;;;;;;;4.90;1.10;;;13.90;99.90;;;;;;5133995;27;20039;-72
2022/09/15 03:46:51;;;;;;;4.40;0.80;;;13.90;99.90;;;;;;5134165;27;20027;-72
2022/09/15 03:49:17;;;;;;;4.30;1.05;;;13.80;99.90;;;;;;5115539;27;20031;-72
2022/09/15 03:51:43;;;;;;;5.95;1.48;;;13.80;99.90;;;;;;5132872;27;20035;-72
2022/09/15 03:54:10;;;;;;;3.22;1.00;;;13.80;99.90;;;;;;5129938;27;20125;-72
2022/09/15 03:56:37;;;;;;;3.28;0.85;;;13.80;99.90;;;;;;5132461;27;20035;-72
2022/09/15 03:59:06;;;;;;;8.65;1.30;;;13.80;99.90;;;;;;5133727;27;20031;-72
2022/09/15 04:01:33;;;;;;;5.78;1.33;;;13.80;99.90;;;;;;5132451;27;20031;-72
2022/09/15 04:03:59;;;;;;;7.40;1.27;;;13.80;99.90;;;;;;5114748;28;20072;-72
2022/09/15 04:06:25;;;;;;;6.45;1.13;;;13.80;99.90;;;;;;5132591;27;20054;-72
2022/09/15 04:08:52;;;;;;;8.48;1.55;;;13.80;99.90;;;;;;5115532;27;20046;-72
2022/09/15 04:11:19;;;;;;;4.88;1.48;;;13.80;99.90;;;;;;5133580;27;20039;-72
2022/09/15 04:13:46;;;;;;;6.65;1.73;;;13.80;99.90;;;;;;5133397;27;20524;-72
2022/09/15 04:16:14;;;;;;;7.50;1.70;;;13.80;99.90;;;;;;5133577;27;20035;-72
2022/09/15 04:18:40;;;;;;;8.20;1.40;;;13.80;99.90;;;;;;5132118;27;20046;-72
2022/09/15 04:21:12;;;;;;;5.00;1.20;;;13.80;99.90;;;;;;5132313;27;20039;-72
2022/09/15 04:23:38;;;;;;;6.97;1.08;;;13.80;99.90;;;;;;5131102;27;20027;-72
2022/09/15 04:26:07;;;;;;;6.05;1.17;;;13.80;99.90;;;;;;5131963;27;20043;-72
2022/09/15 04:28:35;;;;;;;5.13;1.30;;;13.80;99.90;;;;;;5114934;27;20043;-72
2022/09/15 04:31:09;;;;;;;7.93;1.30;;;13.80;99.90;;;;;;5131955;27;20039;-72
2022/09/15 04:33:37;;;;;;;6.90;1.25;;;13.80;99.90;;;;;;5115229;27;20035;-72
2022/09/15 04:36:06;;;;;;;4.63;1.02;;;13.90;99.90;;;;;;5131810;27;20410;-72
2022/09/15 04:38:33;;;;;;;4.22;1.20;;;13.80;99.90;;;;;;5133100;27;20031;-72
2022/09/15 04:40:59;;;;;;;4.53;1.33;;;13.90;99.90;;;;;;5133335;27;20035;-72
2022/09/15 04:43:25;;;;;;;4.90;1.05;;;13.80;99.90;;;;;;5133003;27;20562;-72
2022/09/15 04:45:51;;;;;;;8.63;1.65;;;13.80;99.90;;;;;;5114896;27;20131;-72
2022/09/15 04:48:17;;;;;;;9.48;1.60;;;13.80;99.90;;;;;;5133161;27;20530;-72
2022/09/15 04:50:43;;;;;;;8.55;1.30;;;13.80;99.90;;;;;;5133010;27;20047;-72
2022/09/15 04:53:09;;;;;;;6.55;1.40;;;13.80;99.90;;;;;;5130506;27;20043;-72
2022/09/15 04:55:36;;;;;;;6.70;1.63;;;13.80;99.90;;;;;;5132644;28;20561;-71
2022/09/15 04:58:03;;;;;;;7.72;1.33;;;13.80;99.90;;;;;;5131994;28;20053;-72
2022/09/15 05:00:30;;;;;;;4.82;1.15;;;13.80;99.90;;;;;;5131926;28;20036;-72
2022/09/15 05:02:58;;;;;;;6.38;1.45;;;13.80;99.90;;;;;;5131570;28;20035;-72
2022/09/15 05:05:24;;;;;;;9.20;2.22;;;13.80;99.90;;;;;;5131617;28;20069;-72
2022/09/15 05:07:50;;;;;;;7.55;1.50;;;13.80;99.90;;;;;;5114642;28;20367;-72
2022/09/15 05:10:16;;;;;;;10.85;2.17;;;13.80;99.90;;;;;;5133088;27;20114;-72
2022/09/15 05:12:42;;;;;;;8.00;1.52;;;13.80;99.90;;;;;;5131425;28;20561;-72
2022/09/15 05:15:11;;;;;;;9.30;1.65;;;13.80;99.90;;;;;;5132833;27;20039;-72
2022/09/15 05:17:37;;;;;;;7.72;1.23;;;13.80;99.90;;;;;;5134555;27;20409;-71
2022/09/15 05:20:04;;;;;;;8.40;1.48;;;13.80;99.90;;;;;;5136925;27;20028;-72
2022/09/15 05:22:30;;;;;;;8.23;1.88;;;13.80;99.90;;;;;;5136851;27;20043;-72
2022/09/15 05:24:56;;;;;;;5.65;1.08;;;13.80;99.90;;;;;;5133042;27;20160;-72
2022/09/15 05:27:21;;;;;;;4.53;1.00;;;13.80;99.90;;;;;;5118285;27;20130;-72
2022/09/15 05:29:47;;;;;;;7.72;1.35;;;13.80;99.90;;;;;;5136822;27;20046;-72
2022/09/15 05:32:13;;;;;;;10.13;1.60;;;13.80;99.90;;;;;;5136669;27;20050;-72
2022/09/15 05:34:39;;;;;;;8.95;1.27;;;13.80;99.90;;;;;;5135367;27;20039;-71
2022/09/15 05:37:05;;;;;;;7.00;1.10;;;13.80;99.90;;;;;;5135237;27;20047;-72
2022/09/15 05:39:31;;;;;;;9.13;1.65;;;13.80;99.90;;;;;;5135249;27;20031;-72
2022/09/15 05:41:58;;;;;;;6.30;1.30;;;13.80;99.90;;;;;;5118394;27;20043;-72
2022/09/15 05:44:24;;;;;;;7.00;1.55;;;13.80;99.90;;;;;;5135153;27;20043;-72
2022/09/15 05:46:51;;;;;;;5.47;1.35;;;13.80;99.90;;;;;;5135277;27;20035;-72
2022/09/15 05:49:17;;;;;;;10.13;2.05;;;13.80;99.90;;;;;;5135019;27;20046;-72
2022/09/15 05:51:42;;;;;;;3.10;1.00;;;13.80;99.90;;;;;;5135218;27;20031;-72
2022/09/15 05:54:08;;;;;;;5.25;1.38;;;13.90;99.90;;;;;;5132792;27;20570;-73
2022/09/15 05:56:34;;;;;;;6.13;1.27;;;13.90;99.90;;;;;;5134881;27;20075;-72
2022/09/15 05:59:01;;;;;;;3.55;1.20;;;13.90;99.90;;;;;;5136262;27;20398;-72
2022/09/15 06:01:28;;;;;;;6.00;1.60;;;13.90;99.90;;;;;;5136097;27;20042;-72
2022/09/15 06:03:56;;;;;;;6.45;1.23;;;14.00;99.90;;;;;;5134784;27;20049;-72
2022/09/15 06:06:23;;;;;;;12.60;2.90;;;14.00;99.90;;;;;;5135982;27;20039;-72
2022/09/15 06:08:54;;;;;;;5.05;1.10;;;14.00;99.90;;;;;;5117661;27;20046;-72
2022/09/15 06:11:23;;;;;;;4.55;1.20;;;14.10;99.90;;;;;;5134694;27;20047;-72
2022/09/15 06:13:49;;;;;;;8.70;1.65;;;14.10;99.90;;;;;;5134622;27;20035;-72
2022/09/15 06:16:20;;;;;;;4.93;1.27;;;14.10;99.90;;;;;;5134545;27;20069;-71
2022/09/15 06:18:51;;;;;;;7.75;2.25;;;14.20;99.90;;;;;;5135157;27;20511;-72
2022/09/15 06:21:21;;;;;;;5.75;1.60;;;14.20;99.90;;;;;;5136380;27;20039;-72
2022/09/15 06:23:52;;;;;;;6.53;1.10;;;14.30;99.90;;;;;;5132987;27;20035;-72
2022/09/15 06:26:19;;;;;;;4.55;1.00;;;14.30;99.90;;;;;;5135520;27;20047;-74
2022/09/15 06:28:50;;;;;;;7.60;1.33;;;14.40;99.90;;;;;;5135951;27;20184;-72
2022/09/15 06:31:17;;;;;;;6.75;1.00;;;14.40;99.90;;;;;;5135080;27;20047;-72
2022/09/15 06:33:49;;;;;;;6.35;1.38;;;14.50;99.90;;;;;;5135145;27;20037;-72
2022/09/15 06:36:16;;;;;;;5.95;1.42;;;14.60;99.90;;;;;;5127902;27;20122;-72
2022/09/15 06:38:43;;;;;;;9.30;1.42;;;14.70;99.90;;;;;;5128943;27;20470;-72
2022/09/15 06:41:10;;;;;;;7.47;1.27;;;14.70;99.90;;;;;;5130782;27;20063;-72
2022/09/15 06:43:37;;;;;;;3.47;1.02;;;14.80;99.90;;;;;;5131467;27;20031;-72
2022/09/15 06:46:12;;;;;;;6.60;1.30;;;14.80;99.90;;;;;;5122747;27;20035;-72
2022/09/15 06:48:39;;;;;;;5.95;1.38;;;14.90;99.90;;;;;;5130517;27;20039;-72
2022/09/15 06:51:07;;;;;;;6.05;1.75;;;14.90;99.90;;;;;;5139401;27;20046;-73
2022/09/15 06:53:36;;;;;;;3.55;1.10;;;15.00;99.90;;;;;;5135417;27;20118;-73
2022/09/15 06:56:04;;;;;;;4.90;1.08;;;15.10;99.90;;;;;;5139298;27;20055;-73
2022/09/15 06:58:30;;;;;;;7.03;1.40;;;15.10;99.90;;;;;;5116806;27;20099;-74
2022/09/15 07:01:04;;;;;;;4.95;1.27;;;15.10;99.90;;;;;;5129502;27;20040;-73
2022/09/15 07:03:30;;;;;;;4.00;1.00;;;15.20;99.90;;;;;;5129817;27;20035;-73
2022/09/15 07:05:56;;;;;;;7.90;1.45;;;15.20;99.90;;;;;;5131174;27;20035;-73
2022/09/15 07:08:50;;;;;;;14.27;1.65;;;15.30;99.90;;;;;;5134412;27;20045;-73
2022/09/15 07:11:17;;;;;;;4.32;0.90;;;15.30;99.90;;;;;;5127063;27;20099;-74
2022/09/15 07:13:43;;;;;;;5.07;1.50;;;15.40;99.90;;;;;;5109965;27;20038;-73
2022/09/15 07:16:11;;;;;;;8.73;1.40;;;15.40;99.90;;;;;;5132738;27;20051;-73
2022/09/15 07:18:37;;;;;;;3.35;0.95;;;15.50;99.90;;;;;;5135529;27;20497;-73
2022/09/15 07:21:07;;;;;;;6.28;1.27;;;15.60;99.90;;;;;;5131787;27;20039;-73
2022/09/15 07:23:33;;;;;;;4.18;1.35;;;15.70;99.90;;;;;;5126038;27;20419;-75
2022/09/15 07:26:23;;;;;;;6.05;1.63;;;15.70;99.90;;;;;;5110193;28;20043;-73
2022/09/15 07:28:57;;;;;;;7.93;1.10;;;15.70;99.90;;;;;;5131288;27;20027;-73
2022/09/15 07:31:28;;;;;;;5.53;0.93;;;15.80;99.90;;;;;;5133216;27;20043;-73
2022/09/15 07:33:54;;;;;;;;;;;15.80;99.90;;;;;;5126418;27;20494;-73
2022/09/15 07:36:20;;;;;;;6.57;1.50;;;15.80;99.90;;;;;;5133319;27;19945;-73
2022/09/15 07:38:48;;;;;;;6.00;0.90;;;15.80;99.90;;;;;;5125573;27;20027;-73
2022/09/15 07:41:22;;;;;;;7.45;1.10;;;15.90;99.90;;;;;;5126221;27;20039;-73
2022/09/15 07:43:52;;;;;;;4.53;1.15;;;15.90;99.90;;;;;;5132489;27;20366;-73
2022/09/15 07:46:22;;;;;;;6.70;1.30;;;16.00;99.90;;;;;;5130769;27;20039;-73
2022/09/15 07:48:51;;;;;;;4.50;1.00;;;16.10;99.90;;;;;;5133861;27;20509;-73
2022/09/15 07:51:18;;;;;;;5.38;1.17;;;16.30;99.90;;;;;;5134104;27;20471;-73
2022/09/15 07:53:46;;;;;;;6.53;0.88;;;16.40;99.90;;;;;;5133985;27;20541;-73
2022/09/15 07:56:12;;;;;;;4.82;1.10;;;16.40;99.90;;;;;;5113325;28;20062;-73
2022/09/15 07:58:38;;;;;;;7.80;1.55;;;16.50;99.90;;;;;;5114829;28;20035;-73
2022/09/15 08:01:15;;;;;;;6.35;1.08;;;16.50;99.90;;;;;;5113509;28;20392;-73
2022/09/15 08:03:47;;;;;;;4.75;1.08;;;16.60;99.90;;;;;;5118478;27;20031;-74
2022/09/15 08:06:14;;;;;;;6.70;1.88;;;16.70;99.90;;;;;;5133754;27;20501;-75
2022/09/15 08:08:42;;;;;;;6.32;1.30;;;16.90;99.90;;;;;;5134535;27;20035;-73
2022/09/15 08:11:15;;;;;;;4.15;1.13;;;17.00;99.90;;;;;;5132991;27;20050;-73
2022/09/15 08:13:41;;;;;;;7.90;1.05;;;17.10;99.90;;;;;;5133291;27;20113;-74
2022/09/15 08:16:10;;;;;;;6.68;1.27;;;17.10;99.90;;;;;;5134750;27;20355;-73
2022/09/15 08:18:36;;;;;;;2.90;0.60;;;17.20;99.90;;;;;;5135004;27;20077;-74
2022/09/15 08:21:06;;;;;;;4.45;0.80;;;17.20;99.90;;;;;;5133128;27;20080;-72
2022/09/15 08:23:32;;;;;;;3.92;0.70;;;17.10;99.90;;;;;;5129446;27;20077;-74
2022/09/15 08:25:58;;;;;;;2.45;0.70;;;17.00;99.90;;;;;;5131457;27;20046;-75
2022/09/15 08:28:25;;;;;;;4.30;1.25;;;16.90;99.90;;;;;;5126339;27;20645;-74
2022/09/15 08:31:03;;;;;;;4.95;0.80;;;16.90;99.90;;;;;;5130201;27;20122;-73
2022/09/15 08:33:29;;;;;;;4.03;0.95;;;17.00;99.90;;;;;;5128065;27;20039;-73
2022/09/15 08:36:00;;;;;;;3.90;1.23;;;17.00;99.90;;;;;;5133864;27;20043;-74
2022/09/15 08:38:30;;;;;;;4.55;0.90;;;17.10;99.90;;;;;;5128352;27;20029;-74
2022/09/15 08:41:08;;;;;;;3.42;0.80;;;17.20;99.90;;;;;;5118009;27;20027;-74
2022/09/15 08:44:07;;;;;;;3.67;0.70;;;17.60;99.90;;;;;;5126356;27;20435;-74
2022/09/15 08:46:58;;;;;;;7.40;1.63;;;18.30;99.90;;;;;;5131861;27;20093;-75
2022/09/15 08:49:36;;;;;;;6.38;1.15;;;18.50;99.90;;;;;;5083357;27;20043;-75
2022/09/15 08:52:12;;;;;;;6.10;1.00;;;18.30;99.90;;;;;;5129259;27;20042;-75
2022/09/15 08:54:38;;;;;;;4.80;0.90;;;18.10;99.90;;;;;;5129726;27;20066;-70
2022/09/15 08:57:09;;;;;;;5.03;1.45;;;17.80;99.90;;;;;;5112045;28;20654;-73
2022/09/15 08:59:38;;;;;;;4.78;0.80;;;17.70;99.90;;;;;;5130391;28;20042;-72
2022/09/15 09:02:22;;;;;;;5.88;1.13;;;17.50;99.90;;;;;;5132248;28;20379;-71
2022/09/15 09:05:10;;;;;;;6.60;1.23;;;17.30;99.90;;;;;;5129962;28;20050;-71
2022/09/15 09:08:01;;;;;;;5.55;1.60;;;17.30;99.90;;;;;;5111205;28;20031;-72
2022/09/15 09:10:45;;;;;;;9.35;1.23;;;17.60;99.90;;;;;;5131456;28;20513;-71
2022/09/15 09:13:38;;;;;;;6.28;0.82;;;18.00;99.90;;;;;;5113573;28;20428;-73
2022/09/15 09:16:29;;;;;;;3.33;0.85;;;18.20;99.90;;;;;;5112303;28;20054;-72
2022/09/15 09:19:33;;;;;;;4.32;0.80;;;18.30;99.90;;;;;;5131926;28;20106;-73
2022/09/15 09:22:16;;;;;;;5.68;0.95;;;18.20;99.90;;;;;;5013633;28;20033;-73
2022/09/15 09:24:48;;;;;;;5.00;0.88;;;18.10;99.90;;;;;;5126580;28;20028;-74
2022/09/15 09:27:19;;;;;;;5.35;1.05;;;18.00;99.90;;;;;;5131631;28;20042;-74
2022/09/15 09:29:50;;;;;;;5.60;0.80;;;17.90;99.90;;;;;;5128767;27;20114;-73
2022/09/15 09:32:23;;;;;;;2.75;0.82;;;17.90;99.90;;;;;;5109459;28;20568;-73
2022/09/15 09:35:01;;;;;;;3.25;0.75;;;17.90;99.90;;;;;;5128631;28;20063;-74
2022/09/15 09:37:27;;;;;;;4.30;1.13;;;17.90;99.90;;;;;;5129249;28;20062;-75
2022/09/15 09:39:53;;;;;;;4.93;0.73;;;18.00;99.90;;;;;;5131487;27;20058;-75
2022/09/15 09:42:29;;;;;;;3.70;0.70;;;18.20;99.90;;;;;;5128232;28;20547;-75
2022/09/15 09:44:55;;;;;;;5.05;1.08;;;18.20;99.90;;;;;;5127893;27;20518;-75
2022/09/15 09:47:31;;;;;;;3.55;0.70;;;18.20;99.90;;;;;;5124763;28;20054;-74
2022/09/15 09:49:57;;;;;;;3.60;0.60;;;18.10;99.90;;;;;;5131264;28;20391;-74
2022/09/15 09:52:34;;;;;;;2.30;0.60;;;18.00;99.90;;;;;;5130833;27;20031;-74
2022/09/15 09:55:02;;;;;;;5.80;0.80;;;18.10;99.90;;;;;;5105822;28;20062;-74
2022/09/15 09:57:30;;;;;;;3.75;0.80;;;18.10;99.90;;;;;;5132700;27;20079;-72
2022/09/15 09:59:56;;;;;;;4.75;0.90;;;18.00;99.90;;;;;;5128239;28;20561;-75
2022/09/15 10:02:27;;;;;;;3.50;1.45;;;17.80;99.90;;;;;;5132066;27;20046;-73
2022/09/15 10:05:11;;;;;;;3.83;0.80;;;17.70;99.90;;;;;;5127674;27;20089;-74
2022/09/15 10:07:42;;;;;;;7.30;1.33;;;17.60;99.90;;;;;;5117020;27;20039;-74
2022/09/15 10:10:24;;;;;;;3.63;0.95;;;17.50;99.90;;;;;;5136976;27;20497;-74
2022/09/15 10:12:55;;;;;;;3.25;0.90;;;17.50;99.90;;;;;;5135246;27;20066;-73
2022/09/15 10:15:24;;;;;;;5.65;0.93;;;17.60;99.90;;;;;;5133283;27;20461;-74
2022/09/15 10:17:51;;;;;;;4.07;1.02;;;17.80;99.90;;;;;;5131889;27;20095;-74
2022/09/15 10:20:34;;;;;;;3.58;0.60;;;18.00;99.90;;;;;;5126288;27;20066;-73
2022/09/15 10:23:21;;;;;;;4.05;0.90;;;18.20;99.90;;;;;;5116127;27;20123;-73
2022/09/15 10:25:47;;;;;;;4.55;0.98;;;18.40;99.90;;;;;;5132134;27;20039;-74
2022/09/15 10:28:24;;;;;;;6.05;1.40;;;18.70;99.90;;;;;;5134596;27;20027;-75
2022/09/15 10:31:09;;;;;;;3.55;0.90;;;19.60;99.90;;;;;;5130726;27;20043;-75
2022/09/15 10:33:37;;;;;;;5.82;0.80;;;20.60;99.90;;;;;;5129378;27;20039;-73
2022/09/15 10:36:13;;;;;;;4.07;0.75;;;21.10;99.90;;;;;;5129872;27;20050;-73
2022/09/15 10:38:43;;;;;;;3.60;0.77;;;21.30;99.90;;;;;;5133445;27;20156;-73
2022/09/15 10:41:30;;;;;;;2.70;0.82;;;21.20;99.90;;;;;;5131880;27;20039;-74
2022/09/15 10:44:18;;;;;;;4.70;0.82;;;20.70;99.90;;;;;;5115666;27;20081;-74
2022/09/15 10:47:11;;;;;;;6.20;1.20;;;20.00;99.90;;;;;;5134281;27;20558;-76
2022/09/15 10:49:37;;;;;;;5.13;1.00;;;19.70;99.90;;;;;;5127307;27;20122;-76
2022/09/15 10:52:31;;;;;;;2.63;0.98;;;20.40;99.90;;;;;;5131203;27;20111;-74
2022/09/15 10:55:23;;;;;;;4.45;0.77;;;21.10;99.90;;;;;;5129704;27;20545;-76
2022/09/15 10:58:26;;;;;;;4.25;0.77;;;20.80;99.30;;;;;;5080001;27;20478;-76
2022/09/15 11:01:04;;;;;;;6.13;1.00;;;20.50;99.20;;;;;;5129746;27;20048;-74
2022/09/15 11:03:59;;;;;;;3.67;0.85;;;20.40;98.60;;;;;;5130729;27;20421;-77
2022/09/15 11:06:50;;;;;;;4.03;0.80;;;20.10;97.70;;;;;;5133755;27;20047;-75
2022/09/15 11:09:32;;;;;;;2.92;0.80;;;19.60;97.90;;;;;;5129621;27;20067;-75
2022/09/15 11:12:19;;;;;;;3.28;0.70;;;19.40;97.60;;;;;;5112369;28;20078;-76
2022/09/15 11:14:54;;;;;;;5.15;0.98;;;19.20;98.10;;;;;;5113958;27;20092;-75
2022/09/15 11:17:46;;;;;;;6.00;0.80;;;19.30;98.50;;;;;;5134025;27;20038;-76
2022/09/15 11:20:16;;;;;;;5.43;0.68;;;19.50;98.60;;;;;;5126120;27;20054;-75
2022/09/15 11:22:59;;;;;;;2.70;0.60;;;19.70;98.30;;;;;;5126008;27;20387;-75
2022/09/15 11:25:29;;;;;;;4.50;0.60;;;19.60;97.60;;;;;;5130009;27;20043;-74
2022/09/15 11:28:09;;;;;;;5.13;0.80;;;19.30;97.60;;;;;;5132877;27;20035;-76
2022/09/15 11:30:41;;;;;;;2.85;0.98;;;19.10;98.00;;;;;;5130832;27;20042;-77
2022/09/15 11:33:47;;;;;;;4.35;0.70;;;18.90;97.80;;;;;;5132258;27;20035;-75
2022/09/15 11:36:18;;;;;;;4.63;0.77;;;18.90;98.40;;;;;;5129331;27;20046;-76
2022/09/15 11:39:06;;;;;;;2.83;0.98;;;19.00;98.70;;;;;;5130861;27;20032;-76
2022/09/15 11:41:43;;;;;;;4.25;0.73;;;19.20;98.90;;;;;;5128051;27;20046;-77
2022/09/15 11:44:31;;;;;;;3.35;0.60;;;19.60;98.20;;;;;;5129154;27;20035;-76
2022/09/15 11:47:18;;;;;;;4.25;1.10;;;19.90;98.80;;;;;;5130317;27;20038;-77
2022/09/15 11:49:53;;;;;;;2.28;0.65;;;20.10;98.20;;;;;;5129643;27;20096;-75
2022/09/15 11:52:34;;;;;;;2.70;0.70;;;19.70;97.70;;;;;;5132521;27;20035;-74
2022/09/15 11:55:39;;;;;;;5.43;0.70;;;19.20;98.50;;;;;;5123588;27;20058;-74
2022/09/15 11:58:07;;;;;;;3.95;0.90;;;18.70;98.70;;;;;;5125751;27;20039;-74
2022/09/15 12:00:38;;;;;;;3.42;0.88;;;18.40;99.10;;;;;;5126944;27;20042;-74
2022/09/15 12:03:51;;;;;;;3.35;0.70;;;18.20;99.30;;;;;;5123779;27;20360;-73
2022/09/15 12:06:31;;;;;;;2.03;0.60;;;18.00;99.90;;;;;;5048935;28;20048;-74
2022/09/15 12:09:02;;;;;;;5.95;1.27;;;18.00;99.90;;;;;;5130118;27;20042;-74
2022/09/15 12:11:33;;;;;;;3.75;0.65;;;18.00;99.90;;;;;;5115783;27;20192;-77
2022/09/15 12:14:01;;;;;;;5.72;1.45;;;18.20;99.90;;;;;;5130393;27;20436;-77
2022/09/15 12:16:27;;;;;;;4.63;0.95;;;18.50;99.90;;;;;;5131250;27;20043;-78
2022/09/15 12:19:07;;;;;;;3.58;1.00;;;18.90;99.90;;;;;;5127185;27;20043;-76
2022/09/15 12:21:42;;;;;;;3.28;0.85;;;19.00;99.10;;;;;;5124801;27;20063;-76
2022/09/15 12:24:24;;;;;;;3.90;0.60;;;18.80;98.70;;;;;;5127886;27;20032;-76
2022/09/15 12:26:50;;;;;;;3.55;0.95;;;18.70;98.30;;;;;;5114532;27;20031;-76
2022/09/15 12:29:26;;;;;;;2.70;0.70;;;18.60;98.60;;;;;;5132681;27;20042;-76
2022/09/15 12:32:18;;;;;;;7.20;0.93;;;18.50;98.90;;;;;;5131034;27;20057;-74
2022/09/15 12:35:12;;;;;;;2.42;0.70;;;18.70;99.40;;;;;;5118220;27;20121;-78
2022/09/15 12:37:58;;;;;;;5.50;0.70;;;18.80;98.80;;;;;;5130001;27;20047;-77
2022/09/15 12:40:32;;;;;;;5.35;1.23;;;18.80;99.20;;;;;;5129792;27;20039;-75
2022/09/15 12:43:00;;;;;;;12.40;1.25;;;18.70;99.80;;;;;;5129531;27;20043;-76
2022/09/15 12:45:30;;;;;;;5.38;1.05;;;18.50;99.90;;;;;;5132173;27;20525;-75
2022/09/15 12:48:17;;;;;;;6.82;0.95;;;18.10;99.90;;;;;;5127207;27;20484;-72
2022/09/15 12:51:01;;;;;;;4.40;0.68;;;17.90;99.90;;;;;;5131577;27;20407;-76
2022/09/15 12:53:36;;;;;;;6.60;1.10;;;17.70;99.90;;;;;;5125090;27;20824;-74
2022/09/15 12:56:26;;;;;;;4.80;0.80;;;17.50;99.90;;;;;;5129179;28;20102;-73
2022/09/15 12:58:53;;;;;;;4.88;1.30;;;17.30;99.90;;;;;;5132213;28;20092;-75
2022/09/15 13:01:24;;;;;;;3.03;0.93;;;17.20;99.90;;;;;;5129667;27;21252;-74
2022/09/15 13:03:56;;;;;;;4.15;0.90;;;17.10;99.90;;;;;;5131147;28;20027;-76
2022/09/15 13:06:37;;;;;;;3.88;0.88;;;17.30;99.90;;;;;;5118433;27;20535;-76
2022/09/15 13:09:18;;;;;;;3.40;0.80;;;17.30;99.90;;;;;;5128398;28;20475;-74
2022/09/15 13:11:59;;;;;;;6.65;0.93;;;17.40;99.90;;;;;;5127509;28;20054;-74
2022/09/15 13:14:41;;;;;;;4.32;0.80;;;17.40;99.90;;;;;;5130431;28;20047;-76
2022/09/15 13:17:18;;;;;;;3.55;0.70;;;17.40;99.90;;;;;;5132284;28;20042;-75